sensor_id;sensor_type;location;lat;lon;timestamp;P1;durP1;ratioP1;P2;durP2;ratioP2
15192;SDS011;7697;51.630;7.484;2024-02-28T00:02:25;15.83;;;10.03;;
15192;SDS011;7697;51.630;7.484;2024-02-28T00:07:29;16.93;;;10.27;;
15192;SDS011;7697;51.630;7.484;2024-02-28T00:12:31;16.33;;;9.90;;
15192;SDS011;7697;51.630;7.484;2024-02-28T00:17:34;21.10;;;12.70;;
15192;SDS011;7697;51.630;7.484;2024-02-28T00:22:37;19.83;;;11.73;;
15192;SDS011;7697;51.630;7.484;2024-02-28T00:27:39;22.50;;;13.93;;
15192;SDS011;7697;51.630;7.484;2024-02-28T00:32:40;20.53;;;12.47;;
15192;SDS011;7697;51.630;7.484;2024-02-28T00:37:44;19.60;;;12.53;;
15192;SDS011;7697;51.630;7.484;2024-02-28T00:42:45;18.57;;;11.73;;
15192;SDS011;7697;51.630;7.484;2024-02-28T00:47:47;18.97;;;11.67;;
15192;SDS011;7697;51.630;7.484;2024-02-28T00:52:50;25.27;;;12.70;;
15192;SDS011;7697;51.630;7.484;2024-02-28T00:57:52;23.33;;;13.70;;
15192;SDS011;7697;51.630;7.484;2024-02-28T01:02:53;24.40;;;13.73;;
15192;SDS011;7697;51.630;7.484;2024-02-28T01:07:57;22.93;;;13.30;;
15192;SDS011;7697;51.630;7.484;2024-02-28T01:12:59;20.20;;;11.10;;
15192;SDS011;7697;51.630;7.484;2024-02-28T01:18:01;21.97;;;12.13;;
15192;SDS011;7697;51.630;7.484;2024-02-28T01:23:04;18.40;;;10.67;;
15192;SDS011;7697;51.630;7.484;2024-02-28T01:28:06;18.17;;;11.37;;
15192;SDS011;7697;51.630;7.484;2024-02-28T01:33:08;19.07;;;11.50;;
15192;SDS011;7697;51.630;7.484;2024-02-28T01:38:11;17.83;;;11.27;;
15192;SDS011;7697;51.630;7.484;2024-02-28T01:43:12;20.70;;;12.23;;
15192;SDS011;7697;51.630;7.484;2024-02-28T01:48:14;27.07;;;15.17;;
15192;SDS011;7697;51.630;7.484;2024-02-28T01:53:18;22.07;;;12.93;;
15192;SDS011;7697;51.630;7.484;2024-02-28T01:58:20;20.00;;;12.57;;
15192;SDS011;7697;51.630;7.484;2024-02-28T02:03:22;20.90;;;11.43;;
15192;SDS011;7697;51.630;7.484;2024-02-28T02:08:25;15.70;;;10.90;;
15192;SDS011;7697;51.630;7.484;2024-02-28T02:13:27;19.70;;;10.97;;
15192;SDS011;7697;51.630;7.484;2024-02-28T02:18:29;19.73;;;11.20;;
15192;SDS011;7697;51.630;7.484;2024-02-28T02:23:32;22.83;;;12.17;;
15192;SDS011;7697;51.630;7.484;2024-02-28T02:28:35;25.70;;;14.63;;
15192;SDS011;7697;51.630;7.484;2024-02-28T02:33:37;22.27;;;13.43;;
15192;SDS011;7697;51.630;7.484;2024-02-28T02:38:40;22.03;;;13.40;;
15192;SDS011;7697;51.630;7.484;2024-02-28T02:43:42;19.87;;;12.73;;
15192;SDS011;7697;51.630;7.484;2024-02-28T02:48:44;19.20;;;12.20;;
15192;SDS011;7697;51.630;7.484;2024-02-28T02:53:47;21.50;;;12.27;;
15192;SDS011;7697;51.630;7.484;2024-02-28T02:58:49;16.67;;;11.20;;
15192;SDS011;7697;51.630;7.484;2024-02-28T03:03:50;17.80;;;11.93;;
15192;SDS011;7697;51.630;7.484;2024-02-28T03:08:54;18.77;;;11.70;;
15192;SDS011;7697;51.630;7.484;2024-02-28T03:13:55;18.57;;;12.13;;
15192;SDS011;7697;51.630;7.484;2024-02-28T03:18:57;19.00;;;12.73;;
15192;SDS011;7697;51.630;7.484;2024-02-28T03:24:01;20.73;;;12.47;;
15192;SDS011;7697;51.630;7.484;2024-02-28T03:29:02;26.63;;;13.83;;
15192;SDS011;7697;51.630;7.484;2024-02-28T03:34:04;28.10;;;15.30;;
15192;SDS011;7697;51.630;7.484;2024-02-28T03:39:07;22.00;;;13.03;;
15192;SDS011;7697;51.630;7.484;2024-02-28T03:44:09;26.57;;;13.57;;
15192;SDS011;7697;51.630;7.484;2024-02-28T03:49:11;20.13;;;12.27;;
15192;SDS011;7697;51.630;7.484;2024-02-28T03:54:14;26.60;;;15.00;;
15192;SDS011;7697;51.630;7.484;2024-02-28T03:59:16;25.53;;;13.77;;
15192;SDS011;7697;51.630;7.484;2024-02-28T04:04:18;23.67;;;13.27;;
15192;SDS011;7697;51.630;7.484;2024-02-28T04:09:21;27.27;;;15.03;;
15192;SDS011;7697;51.630;7.484;2024-02-28T04:14:22;30.90;;;15.37;;
15192;SDS011;7697;51.630;7.484;2024-02-28T04:19:24;45.63;;;20.17;;
15192;SDS011;7697;51.630;7.484;2024-02-28T04:24:27;42.37;;;18.93;;
15192;SDS011;7697;51.630;7.484;2024-02-28T04:29:29;60.87;;;25.30;;
15192;SDS011;7697;51.630;7.484;2024-02-28T04:34:31;49.10;;;22.53;;
15192;SDS011;7697;51.630;7.484;2024-02-28T04:39:34;54.20;;;23.30;;
15192;SDS011;7697;51.630;7.484;2024-02-28T04:44:35;62.80;;;25.17;;
15192;SDS011;7697;51.630;7.484;2024-02-28T04:49:37;46.67;;;21.07;;
15192;SDS011;7697;51.630;7.484;2024-02-28T04:54:41;62.77;;;24.57;;
15192;SDS011;7697;51.630;7.484;2024-02-28T04:59:43;58.67;;;26.37;;
15192;SDS011;7697;51.630;7.484;2024-02-28T05:04:46;59.97;;;26.83;;
15192;SDS011;7697;51.630;7.484;2024-02-28T05:09:49;60.23;;;26.47;;
15192;SDS011;7697;51.630;7.484;2024-02-28T05:14:51;67.80;;;28.20;;
15192;SDS011;7697;51.630;7.484;2024-02-28T05:19:53;52.93;;;25.97;;
15192;SDS011;7697;51.630;7.484;2024-02-28T05:24:56;58.20;;;26.93;;
15192;SDS011;7697;51.630;7.484;2024-02-28T05:29:58;71.70;;;31.20;;
15192;SDS011;7697;51.630;7.484;2024-02-28T05:35:01;63.30;;;30.30;;
15192;SDS011;7697;51.630;7.484;2024-02-28T05:40:06;63.00;;;30.53;;
15192;SDS011;7697;51.630;7.484;2024-02-28T05:45:09;55.90;;;28.17;;
15192;SDS011;7697;51.630;7.484;2024-02-28T05:50:12;50.97;;;26.23;;
15192;SDS011;7697;51.630;7.484;2024-02-28T05:55:16;52.40;;;25.50;;
15192;SDS011;7697;51.630;7.484;2024-02-28T06:00:18;50.90;;;25.00;;
15192;SDS011;7697;51.630;7.484;2024-02-28T06:05:20;66.63;;;30.57;;
15192;SDS011;7697;51.630;7.484;2024-02-28T06:10:23;75.60;;;32.77;;
15192;SDS011;7697;51.630;7.484;2024-02-28T06:15:25;55.33;;;28.40;;
15192;SDS011;7697;51.630;7.484;2024-02-28T06:20:27;54.53;;;26.57;;
15192;SDS011;7697;51.630;7.484;2024-02-28T06:25:30;59.83;;;29.07;;
15192;SDS011;7697;51.630;7.484;2024-02-28T06:30:34;50.13;;;26.07;;
15192;SDS011;7697;51.630;7.484;2024-02-28T06:35:36;49.67;;;26.17;;
15192;SDS011;7697;51.630;7.484;2024-02-28T06:40:39;58.40;;;28.80;;
15192;SDS011;7697;51.630;7.484;2024-02-28T06:45:41;70.20;;;33.37;;
15192;SDS011;7697;51.630;7.484;2024-02-28T06:50:43;58.50;;;28.47;;
15192;SDS011;7697;51.630;7.484;2024-02-28T06:55:46;55.93;;;28.20;;
15192;SDS011;7697;51.630;7.484;2024-02-28T07:00:48;55.47;;;26.87;;
15192;SDS011;7697;51.630;7.484;2024-02-28T07:05:50;55.83;;;29.10;;
15192;SDS011;7697;51.630;7.484;2024-02-28T07:10:54;55.30;;;28.93;;
15192;SDS011;7697;51.630;7.484;2024-02-28T07:15:56;62.57;;;31.87;;
15192;SDS011;7697;51.630;7.484;2024-02-28T07:20:58;55.87;;;28.07;;
15192;SDS011;7697;51.630;7.484;2024-02-28T07:26:02;56.87;;;28.30;;
15192;SDS011;7697;51.630;7.484;2024-02-28T07:31:04;53.57;;;28.03;;
15192;SDS011;7697;51.630;7.484;2024-02-28T07:36:06;61.50;;;31.27;;
15192;SDS011;7697;51.630;7.484;2024-02-28T07:41:10;61.03;;;31.37;;
15192;SDS011;7697;51.630;7.484;2024-02-28T07:46:11;55.37;;;28.93;;
15192;SDS011;7697;51.630;7.484;2024-02-28T07:51:13;61.70;;;31.77;;
15192;SDS011;7697;51.630;7.484;2024-02-28T07:56:17;63.17;;;32.63;;
15192;SDS011;7697;51.630;7.484;2024-02-28T08:01:18;60.03;;;29.93;;
15192;SDS011;7697;51.630;7.484;2024-02-28T08:06:22;67.20;;;33.20;;
15192;SDS011;7697;51.630;7.484;2024-02-28T08:11:25;63.23;;;32.90;;
15192;SDS011;7697;51.630;7.484;2024-02-28T08:16:27;72.97;;;32.97;;
15192;SDS011;7697;51.630;7.484;2024-02-28T08:21:28;67.03;;;34.60;;
15192;SDS011;7697;51.630;7.484;2024-02-28T08:26:32;69.43;;;35.30;;
15192;SDS011;7697;51.630;7.484;2024-02-28T08:31:38;61.13;;;33.37;;
15192;SDS011;7697;51.630;7.484;2024-02-28T08:36:41;61.33;;;31.13;;
15192;SDS011;7697;51.630;7.484;2024-02-28T08:41:44;56.53;;;31.60;;
15192;SDS011;7697;51.630;7.484;2024-02-28T08:46:46;62.97;;;33.07;;
15192;SDS011;7697;51.630;7.484;2024-02-28T08:51:48;55.13;;;29.47;;
15192;SDS011;7697;51.630;7.484;2024-02-28T08:56:51;52.37;;;29.77;;
15192;SDS011;7697;51.630;7.484;2024-02-28T09:01:52;51.23;;;27.93;;
15192;SDS011;7697;51.630;7.484;2024-02-28T09:06:54;50.80;;;27.70;;
15192;SDS011;7697;51.630;7.484;2024-02-28T09:11:57;50.17;;;29.10;;
15192;SDS011;7697;51.630;7.484;2024-02-28T09:16:59;58.43;;;30.93;;
15192;SDS011;7697;51.630;7.484;2024-02-28T09:22:03;51.60;;;28.20;;
15192;SDS011;7697;51.630;7.484;2024-02-28T09:27:06;52.03;;;28.47;;
15192;SDS011;7697;51.630;7.484;2024-02-28T09:32:08;57.13;;;30.30;;
15192;SDS011;7697;51.630;7.484;2024-02-28T09:37:10;55.93;;;30.70;;
15192;SDS011;7697;51.630;7.484;2024-02-28T09:42:13;50.60;;;27.60;;
15192;SDS011;7697;51.630;7.484;2024-02-28T09:47:15;48.70;;;28.07;;
15192;SDS011;7697;51.630;7.484;2024-02-28T09:52:17;38.63;;;22.90;;
15192;SDS011;7697;51.630;7.484;2024-02-28T09:57:21;43.13;;;24.57;;
15192;SDS011;7697;51.630;7.484;2024-02-28T10:02:28;46.80;;;28.40;;
15192;SDS011;7697;51.630;7.484;2024-02-28T10:07:30;45.03;;;25.87;;
15192;SDS011;7697;51.630;7.484;2024-02-28T10:12:33;48.10;;;26.67;;
15192;SDS011;7697;51.630;7.484;2024-02-28T10:17:35;43.90;;;25.97;;
15192;SDS011;7697;51.630;7.484;2024-02-28T10:22:37;47.33;;;26.80;;
15192;SDS011;7697;51.630;7.484;2024-02-28T10:27:40;43.50;;;25.37;;
15192;SDS011;7697;51.630;7.484;2024-02-28T10:32:47;48.20;;;27.87;;
15192;SDS011;7697;51.630;7.484;2024-02-28T10:37:49;49.67;;;28.23;;
15192;SDS011;7697;51.630;7.484;2024-02-28T10:42:54;47.38;;;26.85;;
15192;SDS011;7697;51.630;7.484;2024-02-28T10:47:58;44.67;;;26.38;;
15192;SDS011;7697;51.630;7.484;2024-02-28T10:53:01;47.07;;;28.27;;
15192;SDS011;7697;51.630;7.484;2024-02-28T10:58:07;47.35;;;27.55;;
15192;SDS011;7697;51.630;7.484;2024-02-28T11:03:10;45.72;;;27.55;;
15192;SDS011;7697;51.630;7.484;2024-02-28T11:08:20;47.60;;;28.83;;
15192;SDS011;7697;51.630;7.484;2024-02-28T11:13:24;47.38;;;28.40;;
15192;SDS011;7697;51.630;7.484;2024-02-28T11:18:27;47.63;;;27.02;;
15192;SDS011;7697;51.630;7.484;2024-02-28T11:23:35;44.58;;;27.50;;
15192;SDS011;7697;51.630;7.484;2024-02-28T11:28:38;42.58;;;26.15;;
15192;SDS011;7697;51.630;7.484;2024-02-28T11:33:40;37.92;;;24.52;;
15192;SDS011;7697;51.630;7.484;2024-02-28T11:38:43;38.63;;;23.73;;
15192;SDS011;7697;51.630;7.484;2024-02-28T11:43:47;40.08;;;24.77;;
15192;SDS011;7697;51.630;7.484;2024-02-28T11:48:49;36.20;;;23.38;;
15192;SDS011;7697;51.630;7.484;2024-02-28T11:53:51;36.40;;;24.90;;
15192;SDS011;7697;51.630;7.484;2024-02-28T11:58:54;38.88;;;23.20;;
15192;SDS011;7697;51.630;7.484;2024-02-28T12:03:59;35.47;;;22.77;;
15192;SDS011;7697;51.630;7.484;2024-02-28T12:09:03;35.20;;;21.80;;
15192;SDS011;7697;51.630;7.484;2024-02-28T12:14:06;37.75;;;22.38;;
15192;SDS011;7697;51.630;7.484;2024-02-28T12:19:09;34.75;;;21.98;;
15192;SDS011;7697;51.630;7.484;2024-02-28T12:24:11;37.25;;;22.75;;
15192;SDS011;7697;51.630;7.484;2024-02-28T12:29:14;44.03;;;24.02;;
15192;SDS011;7697;51.630;7.484;2024-02-28T12:34:16;30.05;;;19.52;;
15192;SDS011;7697;51.630;7.484;2024-02-28T12:39:18;27.48;;;18.20;;
15192;SDS011;7697;51.630;7.484;2024-02-28T12:44:21;30.02;;;19.33;;
15192;SDS011;7697;51.630;7.484;2024-02-28T12:49:22;28.30;;;19.50;;
15192;SDS011;7697;51.630;7.484;2024-02-28T12:54:24;30.17;;;19.60;;
15192;SDS011;7697;51.630;7.484;2024-02-28T12:59:27;29.40;;;20.33;;
15192;SDS011;7697;51.630;7.484;2024-02-28T13:04:29;25.42;;;17.85;;
15192;SDS011;7697;51.630;7.484;2024-02-28T13:09:31;31.40;;;21.10;;
15192;SDS011;7697;51.630;7.484;2024-02-28T13:14:34;27.88;;;18.73;;
15192;SDS011;7697;51.630;7.484;2024-02-28T13:19:36;26.17;;;18.08;;
15192;SDS011;7697;51.630;7.484;2024-02-28T13:24:37;25.92;;;18.13;;
15192;SDS011;7697;51.630;7.484;2024-02-28T13:29:41;26.92;;;18.50;;
15192;SDS011;7697;51.630;7.484;2024-02-28T13:34:42;26.52;;;17.80;;
15192;SDS011;7697;51.630;7.484;2024-02-28T13:39:44;23.33;;;16.50;;
15192;SDS011;7697;51.630;7.484;2024-02-28T13:44:47;23.40;;;15.05;;
15192;SDS011;7697;51.630;7.484;2024-02-28T13:49:49;25.48;;;17.27;;
15192;SDS011;7697;51.630;7.484;2024-02-28T13:54:51;26.40;;;17.67;;
15192;SDS011;7697;51.630;7.484;2024-02-28T13:59:54;23.92;;;16.88;;
15192;SDS011;7697;51.630;7.484;2024-02-28T14:04:56;25.55;;;16.88;;
15192;SDS011;7697;51.630;7.484;2024-02-28T14:09:58;20.27;;;14.52;;
15192;SDS011;7697;51.630;7.484;2024-02-28T14:15:01;21.30;;;14.65;;
15192;SDS011;7697;51.630;7.484;2024-02-28T14:20:05;24.58;;;16.20;;
15192;SDS011;7697;51.630;7.484;2024-02-28T14:25:10;22.40;;;15.07;;
15192;SDS011;7697;51.630;7.484;2024-02-28T14:30:14;20.75;;;14.70;;
15192;SDS011;7697;51.630;7.484;2024-02-28T14:35:16;21.88;;;15.30;;
15192;SDS011;7697;51.630;7.484;2024-02-28T14:40:18;22.65;;;15.60;;
15192;SDS011;7697;51.630;7.484;2024-02-28T14:45:21;21.80;;;14.70;;
15192;SDS011;7697;51.630;7.484;2024-02-28T14:50:24;19.48;;;13.85;;
15192;SDS011;7697;51.630;7.484;2024-02-28T14:55:26;22.38;;;14.35;;
15192;SDS011;7697;51.630;7.484;2024-02-28T15:00:29;19.30;;;13.55;;
15192;SDS011;7697;51.630;7.484;2024-02-28T15:05:31;18.80;;;13.23;;
15192;SDS011;7697;51.630;7.484;2024-02-28T15:10:33;18.33;;;12.15;;
15192;SDS011;7697;51.630;7.484;2024-02-28T15:15:36;18.58;;;12.77;;
15192;SDS011;7697;51.630;7.484;2024-02-28T15:20:38;18.17;;;13.00;;
15192;SDS011;7697;51.630;7.484;2024-02-28T15:25:39;18.00;;;12.90;;
15192;SDS011;7697;51.630;7.484;2024-02-28T15:30:43;19.75;;;13.50;;
15192;SDS011;7697;51.630;7.484;2024-02-28T15:35:44;16.35;;;11.68;;
15192;SDS011;7697;51.630;7.484;2024-02-28T15:40:46;17.50;;;12.68;;
15192;SDS011;7697;51.630;7.484;2024-02-28T15:45:50;17.17;;;11.50;;
15192;SDS011;7697;51.630;7.484;2024-02-28T15:50:51;16.63;;;12.25;;
15192;SDS011;7697;51.630;7.484;2024-02-28T15:55:53;16.58;;;12.55;;
15192;SDS011;7697;51.630;7.484;2024-02-28T16:00:56;19.55;;;12.30;;
15192;SDS011;7697;51.630;7.484;2024-02-28T16:05:58;17.50;;;12.07;;
15192;SDS011;7697;51.630;7.484;2024-02-28T16:11:00;21.40;;;14.27;;
15192;SDS011;7697;51.630;7.484;2024-02-28T16:16:03;17.35;;;12.75;;
15192;SDS011;7697;51.630;7.484;2024-02-28T16:21:05;18.23;;;11.90;;
15192;SDS011;7697;51.630;7.484;2024-02-28T16:26:07;17.65;;;12.00;;
15192;SDS011;7697;51.630;7.484;2024-02-28T16:31:10;14.13;;;10.15;;
15192;SDS011;7697;51.630;7.484;2024-02-28T16:36:12;18.10;;;11.73;;
15192;SDS011;7697;51.630;7.484;2024-02-28T16:41:14;16.52;;;11.32;;
15192;SDS011;7697;51.630;7.484;2024-02-28T16:46:17;17.00;;;12.18;;
15192;SDS011;7697;51.630;7.484;2024-02-28T16:51:19;19.50;;;13.00;;
15192;SDS011;7697;51.630;7.484;2024-02-28T16:56:21;15.68;;;11.45;;
15192;SDS011;7697;51.630;7.484;2024-02-28T17:01:24;15.05;;;10.52;;
15192;SDS011;7697;51.630;7.484;2024-02-28T17:06:27;14.60;;;10.98;;
15192;SDS011;7697;51.630;7.484;2024-02-28T17:11:29;16.73;;;11.57;;
15192;SDS011;7697;51.630;7.484;2024-02-28T17:16:33;19.30;;;12.65;;
15192;SDS011;7697;51.630;7.484;2024-02-28T17:21:35;17.52;;;12.30;;
15192;SDS011;7697;51.630;7.484;2024-02-28T17:26:36;17.25;;;12.07;;
15192;SDS011;7697;51.630;7.484;2024-02-28T17:31:39;19.08;;;12.93;;
15192;SDS011;7697;51.630;7.484;2024-02-28T17:36:41;16.60;;;12.02;;
15192;SDS011;7697;51.630;7.484;2024-02-28T17:41:43;15.13;;;11.15;;
15192;SDS011;7697;51.630;7.484;2024-02-28T17:46:47;15.80;;;11.75;;
15192;SDS011;7697;51.630;7.484;2024-02-28T17:51:49;20.30;;;12.93;;
15192;SDS011;7697;51.630;7.484;2024-02-28T17:56:50;19.05;;;11.57;;
15192;SDS011;7697;51.630;7.484;2024-02-28T18:01:53;19.17;;;12.57;;
15192;SDS011;7697;51.630;7.484;2024-02-28T18:06:56;20.75;;;14.02;;
15192;SDS011;7697;51.630;7.484;2024-02-28T18:11:58;22.30;;;14.38;;
15192;SDS011;7697;51.630;7.484;2024-02-28T18:17:01;28.20;;;17.92;;
15192;SDS011;7697;51.630;7.484;2024-02-28T18:22:04;23.70;;;16.38;;
15192;SDS011;7697;51.630;7.484;2024-02-28T18:27:08;19.33;;;13.25;;
15192;SDS011;7697;51.630;7.484;2024-02-28T18:32:12;26.02;;;16.73;;
15192;SDS011;7697;51.630;7.484;2024-02-28T18:37:14;18.95;;;13.30;;
15192;SDS011;7697;51.630;7.484;2024-02-28T18:42:16;20.33;;;13.98;;
15192;SDS011;7697;51.630;7.484;2024-02-28T18:47:19;19.85;;;12.85;;
15192;SDS011;7697;51.630;7.484;2024-02-28T18:52:23;24.90;;;15.88;;
15192;SDS011;7697;51.630;7.484;2024-02-28T18:57:25;26.00;;;17.35;;
15192;SDS011;7697;51.630;7.484;2024-02-28T19:02:28;22.23;;;14.80;;
15192;SDS011;7697;51.630;7.484;2024-02-28T19:07:30;20.80;;;14.85;;
15192;SDS011;7697;51.630;7.484;2024-02-28T19:12:32;18.52;;;13.50;;
15192;SDS011;7697;51.630;7.484;2024-02-28T19:17:35;22.15;;;14.23;;
15192;SDS011;7697;51.630;7.484;2024-02-28T19:22:37;18.58;;;12.98;;
15192;SDS011;7697;51.630;7.484;2024-02-28T19:27:38;20.85;;;14.05;;
15192;SDS011;7697;51.630;7.484;2024-02-28T19:32:41;23.35;;;14.90;;
15192;SDS011;7697;51.630;7.484;2024-02-28T19:37:43;19.13;;;13.40;;
15192;SDS011;7697;51.630;7.484;2024-02-28T19:42:45;19.45;;;13.52;;
15192;SDS011;7697;51.630;7.484;2024-02-28T19:47:49;21.83;;;14.50;;
15192;SDS011;7697;51.630;7.484;2024-02-28T19:52:50;17.45;;;12.52;;
15192;SDS011;7697;51.630;7.484;2024-02-28T19:57:52;18.90;;;13.52;;
15192;SDS011;7697;51.630;7.484;2024-02-28T20:02:56;17.55;;;12.43;;
15192;SDS011;7697;51.630;7.484;2024-02-28T20:07:57;20.35;;;13.85;;
15192;SDS011;7697;51.630;7.484;2024-02-28T20:12:59;20.35;;;13.30;;
15192;SDS011;7697;51.630;7.484;2024-02-28T20:18:02;19.08;;;12.77;;
15192;SDS011;7697;51.630;7.484;2024-02-28T20:23:05;19.00;;;12.48;;
15192;SDS011;7697;51.630;7.484;2024-02-28T20:28:07;15.98;;;10.90;;
15192;SDS011;7697;51.630;7.484;2024-02-28T20:33:10;18.38;;;12.88;;
15192;SDS011;7697;51.630;7.484;2024-02-28T20:38:12;17.55;;;12.55;;
15192;SDS011;7697;51.630;7.484;2024-02-28T20:43:14;19.80;;;13.10;;
15192;SDS011;7697;51.630;7.484;2024-02-28T20:48:17;18.47;;;12.47;;
15192;SDS011;7697;51.630;7.484;2024-02-28T20:53:19;21.40;;;14.32;;
15192;SDS011;7697;51.630;7.484;2024-02-28T20:58:23;19.33;;;13.17;;
15192;SDS011;7697;51.630;7.484;2024-02-28T21:03:26;22.00;;;14.30;;
15192;SDS011;7697;51.630;7.484;2024-02-28T21:08:28;17.85;;;11.75;;
15192;SDS011;7697;51.630;7.484;2024-02-28T21:13:30;21.52;;;13.77;;
15192;SDS011;7697;51.630;7.484;2024-02-28T21:18:33;21.07;;;13.57;;
15192;SDS011;7697;51.630;7.484;2024-02-28T21:23:35;21.67;;;13.85;;
15192;SDS011;7697;51.630;7.484;2024-02-28T21:28:37;22.83;;;15.15;;
15192;SDS011;7697;51.630;7.484;2024-02-28T21:33:40;19.50;;;13.63;;
15192;SDS011;7697;51.630;7.484;2024-02-28T21:38:41;23.80;;;14.93;;
15192;SDS011;7697;51.630;7.484;2024-02-28T21:43:43;20.47;;;14.40;;
15192;SDS011;7697;51.630;7.484;2024-02-28T21:48:46;23.20;;;15.03;;
15192;SDS011;7697;51.630;7.484;2024-02-28T21:53:48;19.40;;;13.27;;
15192;SDS011;7697;51.630;7.484;2024-02-28T21:58:49;21.87;;;14.73;;
15192;SDS011;7697;51.630;7.484;2024-02-28T22:03:53;19.73;;;13.85;;
15192;SDS011;7697;51.630;7.484;2024-02-28T22:08:54;18.77;;;13.63;;
15192;SDS011;7697;51.630;7.484;2024-02-28T22:13:59;18.83;;;13.33;;
15192;SDS011;7697;51.630;7.484;2024-02-28T22:19:03;19.37;;;13.30;;
15192;SDS011;7697;51.630;7.484;2024-02-28T22:24:04;16.50;;;11.93;;
15192;SDS011;7697;51.630;7.484;2024-02-28T22:29:08;19.03;;;13.23;;
15192;SDS011;7697;51.630;7.484;2024-02-28T22:34:11;17.20;;;12.00;;
15192;SDS011;7697;51.630;7.484;2024-02-28T22:39:13;21.07;;;13.80;;
15192;SDS011;7697;51.630;7.484;2024-02-28T22:44:14;23.70;;;15.10;;
15192;SDS011;7697;51.630;7.484;2024-02-28T22:49:18;20.20;;;14.03;;
15192;SDS011;7697;51.630;7.484;2024-02-28T22:54:19;17.90;;;13.37;;
15192;SDS011;7697;51.630;7.484;2024-02-28T22:59:23;18.13;;;12.87;;
15192;SDS011;7697;51.630;7.484;2024-02-28T23:04:26;18.67;;;12.80;;
15192;SDS011;7697;51.630;7.484;2024-02-28T23:09:27;17.57;;;12.43;;
15192;SDS011;7697;51.630;7.484;2024-02-28T23:14:29;17.50;;;11.07;;
15192;SDS011;7697;51.630;7.484;2024-02-28T23:19:34;14.20;;;9.87;;
15192;SDS011;7697;51.630;7.484;2024-02-28T23:24:36;13.77;;;10.17;;
15192;SDS011;7697;51.630;7.484;2024-02-28T23:29:38;13.03;;;9.47;;
15192;SDS011;7697;51.630;7.484;2024-02-28T23:34:41;14.10;;;9.30;;
15192;SDS011;7697;51.630;7.484;2024-02-28T23:39:43;16.00;;;10.07;;
15192;SDS011;7697;51.630;7.484;2024-02-28T23:44:44;14.77;;;9.77;;
15192;SDS011;7697;51.630;7.484;2024-02-28T23:49:48;17.03;;;11.37;;
15192;SDS011;7697;51.630;7.484;2024-02-28T23:54:50;15.43;;;10.50;;
15192;SDS011;7697;51.630;7.484;2024-02-28T23:59:51;14.27;;;9.70;;
